Time,TemperatureF,DewpointF,PressureIn,WindDirection,WindDirectionDegrees,WindSpeedMPH,WindSpeedGustMPH,Humidity,HourlyPrecipIn,Conditions,Clouds,dailyrainin,SolarRadiationWatts/m^2,SoftwareType,DateUTC
2015-07-05 00:00:00,84.2,64.8,30.72,SE,138,5.6,7.4,52,0.00,,,0.00,0.00,Weather logger V1.0,2015-07-05 07:00:00,
2015-07-05 00:05:00,84.0,65.1,30.72,ESE,109,2.7,4.9,53,0.00,,,0.00,0.00,Weather logger V1.0,2015-07-05 07:05:00,
2015-07-05 00:10:00,83.8,64.9,30.73,ESE,102,1.8,4.9,53,0.00,,,0.00,0.00,Weather logger V1.0,2015-07-05 07:10:00,
2015-07-05 00:15:00,83.5,64.6,30.72,SE,137,1.1,2.5,53,0.00,,,0.00,0.00,Weather logger V1.0,2015-07-05 07:15:00,
2015-07-05 00:20:00,83.1,64.2,30.73,ESE,111,1.3,4.9,53,0.00,,,0.00,0.00,Weather logger V1.0,2015-07-05 07:20:00,
2015-07-05 00:25:00,82.9,64.6,30.72,SE,141,4.5,7.4,54,0.00,,,0.00,0.00,Weather logger V1.0,2015-07-05 07:25:00,
2015-07-05 00:30:00,82.6,64.4,30.73,ESE,106,6.5,7.4,54,0.00,,,0.00,0.00,Weather logger V1.0,2015-07-05 07:30:00,
2015-07-05 00:35:00,82.2,64.0,30.73,ESE,117,2.0,2.5,54,0.00,,,0.00,0.00,Weather logger V1.0,2015-07-05 07:35:00,
2015-07-05 00:40:00,81.9,63.7,30.73,SE,135,6.0,9.8,54,0.00,,,0.00,0.00,Weather logger V1.0,2015-07-05 07:40:00,
2015-07-05 00:45:00,81.5,63.9,30.73,East,94,1.3,2.5,55,0.00,,,0.00,0.00,Weather logger V1.0,2015-07-05 07:45:00,
2015-07-05 00:50:00,81.1,64.0,30.73,SSE,158,2.7,4.9,56,0.00,,,0.00,0.00,Weather logger V1.0,2015-07-05 07:50:00,
2015-07-05 00:55:00,80.8,64.2,30.73,ESE,107,3.4,7.4,57,0.00,,,0.00,0.00,Weather logger V1.0,2015-07-05 07:55:00,
2015-07-05 01:00:00,80.4,64.4,30.73,ESE,108,0.9,2.5,58,0.00,,,0.00,0.00,Weather logger V1.0,2015-07-05 08:00:00,
2015-07-05 01:06:00,80.1,64.0,30.73,East,99,2.7,7.4,58,0.00,,,0.00,0.00,Weather logger V1.0,2015-07-05 08:06:00,
2015-07-05 01:11:00,79.7,64.2,30.73,ESE,118,2.0,4.9,59,0.00,,,0.00,0.00,Weather logger V1.0,2015-07-05 08:11:00,
2015-07-05 01:16:00,79.5,64.4,30.73,ESE,105,2.0,2.5,60,0.00,,,0.00,0.00,Weather logger V1.0,2015-07-05 08:16:00,
2015-07-05 01:21:00,79.2,64.2,30.73,SSE,157,1.1,2.5,60,0.00,,,0.00,0.00,Weather logger V1.0,2015-07-05 08:21:00,
2015-07-05 01:26:00,79.0,64.0,30.72,ESE,115,2.5,4.9,60,0.00,,,0.00,0.00,Weather logger V1.0,2015-07-05 08:26:00,
2015-07-05 01:31:00,78.8,63.3,30.73,ESE,116,3.6,4.9,59,0.00,,,0.00,0.00,Weather logger V1.0,2015-07-05 08:31:00,
2015-07-05 01:36:00,78.6,62.6,30.73,East,101,1.3,2.5,58,0.00,,,0.00,0.00,Weather logger V1.0,2015-07-05 08:36:00,
2015-07-05 01:41:00,78.6,62.6,30.73,ESE,108,3.6,7.4,58,0.00,,,0.00,0.00,Weather logger V1.0,2015-07-05 08:41:00,
2015-07-05 01:46:00,78.4,62.4,30.73,ESE,110,2.7,4.9,58,0.00,,,0.00,0.00,Weather logger V1.0,2015-07-05 08:46:00,
2015-07-05 01:51:00,78.1,62.2,30.72,East,85,6.5,7.4,58,0.00,,,0.00,0.00,Weather logger V1.0,2015-07-05 08:51:00,
2015-07-05 01:56:00,77.9,62.1,30.73,ENE,62,4.2,7.4,58,0.00,,,0.00,0.00,Weather logger V1.0,2015-07-05 08:56:00,
2015-07-05 02:02:00,77.7,62.2,30.73,ESE,120,6.5,9.8,59,0.00,,,0.00,0.00,Weather logger V1.0,2015-07-05 09:02:00,
2015-07-05 02:07:00,77.4,62.4,30.72,SE,143,1.1,2.5,60,0.00,,,0.00,0.00,Weather logger V1.0,2015-07-05 09:07:00,
2015-07-05 02:12:00,77.2,62.2,30.73,SE,126,2.7,4.9,60,0.00,,,0.00,0.00,Weather logger V1.0,2015-07-05 09:12:00,
2015-07-05 02:17:00,77.2,62.2,30.74,ESE,106,3.6,4.9,60,0.00,,,0.00,0.00,Weather logger V1.0,2015-07-05 09:17:00,
2015-07-05 02:22:00,77.0,62.1,30.73,SE,137,4.9,7.4,60,0.00,,,0.00,0.00,Weather logger V1.0,2015-07-05 09:22:00,
2015-07-05 02:27:00,77.0,62.1,30.74,ESE,107,6.0,7.4,60,0.00,,,0.00,0.00,Weather logger V1.0,2015-07-05 09:27:00,
2015-07-05 02:32:00,77.0,63.0,30.74,SE,133,3.6,7.4,62,0.00,,,0.00,0.00,Weather logger V1.0,2015-07-05 09:32:00,
2015-07-05 02:37:00,76.8,62.8,30.74,SE,136,5.8,7.4,62,0.00,,,0.00,0.00,Weather logger V1.0,2015-07-05 09:37:00,
2015-07-05 02:42:00,76.6,62.8,30.73,ESE,108,8.1,9.8,62,0.00,,,0.00,0.00,Weather logger V1.0,2015-07-05 09:42:00,
2015-07-05 02:47:00,76.5,63.0,30.74,ESE,106,2.9,4.9,63,0.00,,,0.00,0.00,Weather logger V1.0,2015-07-05 09:47:00,
2015-07-05 02:52:00,76.3,62.8,30.74,ESE,118,4.5,7.4,63,0.00,,,0.00,0.00,Weather logger V1.0,2015-07-05 09:52:00,
2015-07-05 02:57:00,75.9,62.1,30.74,ESE,113,6.7,9.8,62,0.00,,,0.00,0.00,Weather logger V1.0,2015-07-05 09:57:00,
2015-07-05 03:02:00,75.7,61.9,30.75,SE,139,2.5,4.9,62,0.00,,,0.00,0.00,Weather logger V1.0,2015-07-05 10:02:00,
2015-07-05 03:07:00,75.6,62.6,30.74,ESE,120,5.6,7.4,64,0.00,,,0.00,0.00,Weather logger V1.0,2015-07-05 10:07:00,
2015-07-05 03:12:00,75.4,62.4,30.74,SE,134,4.2,4.9,64,0.00,,,0.00,0.00,Weather logger V1.0,2015-07-05 10:12:00,
2015-07-05 03:18:00,75.2,62.2,30.74,East,100,2.0,2.5,64,0.00,,,0.00,0.00,Weather logger V1.0,2015-07-05 10:18:00,
2015-07-05 03:23:00,75.0,62.1,30.75,ESE,111,6.7,7.4,64,0.00,,,0.00,0.00,Weather logger V1.0,2015-07-05 10:23:00,
2015-07-05 03:28:00,74.8,61.9,30.74,ESE,103,2.9,4.9,64,0.00,,,0.00,0.00,Weather logger V1.0,2015-07-05 10:28:00,
2015-07-05 03:33:00,74.7,61.7,30.75,ESE,118,5.6,7.4,64,0.00,,,0.00,0.00,Weather logger V1.0,2015-07-05 10:33:00,
2015-07-05 03:38:00,74.5,61.5,30.75,ESE,117,6.5,9.8,64,0.00,,,0.00,0.00,Weather logger V1.0,2015-07-05 10:38:00,
2015-07-05 03:43:00,74.3,61.3,30.75,ESE,107,5.1,7.4,64,0.00,,,0.00,0.00,Weather logger V1.0,2015-07-05 10:43:00,
2015-07-05 03:48:00,74.1,61.2,30.75,ESE,106,4.5,4.9,64,0.00,,,0.00,0.00,Weather logger V1.0,2015-07-05 10:48:00,
2015-07-05 03:53:00,73.9,61.0,30.75,ENE,72,4.0,9.8,64,0.00,,,0.00,0.00,Weather logger V1.0,2015-07-05 10:53:00,
2015-07-05 03:58:00,73.8,60.8,30.75,SE,129,1.8,2.5,64,0.00,,,0.00,0.00,Weather logger V1.0,2015-07-05 10:58:00,
2015-07-05 04:03:00,73.6,60.6,30.75,East,79,4.0,4.9,64,0.00,,,0.00,0.00,Weather logger V1.0,2015-07-05 11:03:00,
2015-07-05 04:08:00,73.4,60.6,30.75,East,101,1.1,2.5,64,0.00,,,0.00,0.00,Weather logger V1.0,2015-07-05 11:08:00,
2015-07-05 04:13:00,73.2,60.8,30.76,East,100,4.9,7.4,65,0.00,,,0.00,0.00,Weather logger V1.0,2015-07-05 11:13:00,
2015-07-05 04:18:00,73.0,60.6,30.76,SSE,150,0.2,2.5,65,0.00,,,0.00,0.00,Weather logger V1.0,2015-07-05 11:18:00,
2015-07-05 04:23:00,72.9,60.4,30.76,ESE,115,2.7,4.9,65,0.00,,,0.00,0.00,Weather logger V1.0,2015-07-05 11:23:00,
2015-07-05 04:28:00,72.7,61.2,30.76,East,94,0.0,0.0,67,0.00,,,0.00,0.00,Weather logger V1.0,2015-07-05 11:28:00,
2015-07-05 04:34:00,72.5,61.0,30.76,ESE,117,0.2,2.5,67,0.00,,,0.00,0.00,Weather logger V1.0,2015-07-05 11:34:00,
2015-07-05 04:39:00,72.3,60.8,30.76,ESE,116,4.5,7.4,67,0.00,,,0.00,0.00,Weather logger V1.0,2015-07-05 11:39:00,
2015-07-05 04:44:00,72.1,60.6,30.76,East,100,2.9,4.9,67,0.00,,,0.00,0.00,Weather logger V1.0,2015-07-05 11:44:00,
2015-07-05 04:49:00,72.0,61.3,30.76,ESE,120,0.0,0.0,69,0.00,,,0.00,0.00,Weather logger V1.0,2015-07-05 11:49:00,
2015-07-05 04:54:00,71.8,61.2,30.77,ESE,117,1.1,2.5,69,0.00,,,0.00,0.00,Weather logger V1.0,2015-07-05 11:54:00,
2015-07-05 04:59:00,71.6,61.3,30.77,ESE,108,2.5,2.5,70,0.00,,,0.00,0.00,Weather logger V1.0,2015-07-05 11:59:00,
2015-07-05 05:04:00,71.4,61.2,30.77,ESE,119,1.8,2.5,70,0.00,,,0.00,0.00,Weather logger V1.0,2015-07-05 12:04:00,
2015-07-05 05:09:00,71.2,61.3,30.77,SSE,147,2.7,4.9,71,0.00,,,0.00,0.00,Weather logger V1.0,2015-07-05 12:09:00,
2015-07-05 05:14:00,71.2,61.3,30.77,ESE,116,3.6,4.9,71,0.00,,,0.00,0.00,Weather logger V1.0,2015-07-05 12:14:00,
2015-07-05 05:19:00,71.1,61.2,30.77,ESE,113,1.3,2.5,71,0.00,,,0.00,0.00,Weather logger V1.0,2015-07-05 12:19:00,
2015-07-05 05:24:00,70.9,61.0,30.78,ESE,120,0.9,2.5,71,0.00,,,0.00,0.00,Weather logger V1.0,2015-07-05 12:24:00,
2015-07-05 05:29:00,70.9,61.0,30.78,ESE,120,2.0,2.5,71,0.00,,,0.00,0.00,Weather logger V1.0,2015-07-05 12:29:00,
2015-07-05 05:34:00,70.7,60.8,30.78,East,87,4.2,7.4,71,0.00,,,0.00,0.00,Weather logger V1.0,2015-07-05 12:34:00,
2015-07-05 05:39:00,70.7,61.3,30.78,SSE,153,0.2,2.5,72,0.00,,,0.00,0.00,Weather logger V1.0,2015-07-05 12:39:00,
2015-07-05 05:44:00,70.5,61.2,30.79,ESE,115,2.0,2.5,72,0.00,,,0.00,0.00,Weather logger V1.0,2015-07-05 12:44:00,
2015-07-05 05:50:00,70.5,61.2,30.80,East,79,1.1,2.5,72,0.00,,,0.00,2.82,Weather logger V1.0,2015-07-05 12:50:00,
2015-07-05 05:55:00,70.3,61.0,30.80,ESE,113,3.6,4.9,72,0.00,,,0.00,7.62,Weather logger V1.0,2015-07-05 12:55:00,
2015-07-05 06:00:00,70.3,61.0,30.79,ESE,110,0.2,2.5,72,0.00,,,0.00,22.97,Weather logger V1.0,2015-07-05 13:00:00,
2015-07-05 06:05:00,70.2,60.8,30.80,East,99,2.5,4.9,72,0.00,,,0.00,49.03,Weather logger V1.0,2015-07-05 13:05:00,
2015-07-05 06:10:00,70.2,61.2,30.80,East,93,1.1,2.5,73,0.00,,,0.00,63.19,Weather logger V1.0,2015-07-05 13:10:00,
2015-07-05 06:15:00,70.0,60.6,30.81,East,93,2.5,4.9,72,0.00,,,0.00,85.37,Weather logger V1.0,2015-07-05 13:15:00,
2015-07-05 06:20:00,70.0,60.6,30.80,SE,134,1.1,2.5,72,0.00,,,0.00,104.82,Weather logger V1.0,2015-07-05 13:20:00,
2015-07-05 06:25:00,70.0,60.6,30.80,ESE,106,3.4,4.9,72,0.00,,,0.00,128.55,Weather logger V1.0,2015-07-05 13:25:00,
2015-07-05 06:30:00,70.2,60.8,30.82,SE,127,4.0,4.9,72,0.00,,,0.00,155.22,Weather logger V1.0,2015-07-05 13:30:00,
2015-07-05 06:35:00,70.2,60.4,30.81,East,97,2.5,4.9,71,0.00,,,0.00,181.04,Weather logger V1.0,2015-07-05 13:35:00,
2015-07-05 06:40:00,70.2,60.4,30.81,ESE,112,3.4,4.9,71,0.00,,,0.00,206.90,Weather logger V1.0,2015-07-05 13:40:00,
2015-07-05 06:46:00,70.3,60.6,30.82,ESE,119,1.3,2.5,71,0.00,,,0.00,238.95,Weather logger V1.0,2015-07-05 13:46:00,
2015-07-05 06:51:00,70.3,60.1,30.82,ESE,120,11.4,15.0,70,0.00,,,0.00,270.14,Weather logger V1.0,2015-07-05 13:51:00,
2015-07-05 06:56:00,70.5,60.3,30.82,ENE,78,4.2,7.4,70,0.00,,,0.00,291.07,Weather logger V1.0,2015-07-05 13:56:00,
2015-07-05 07:01:00,70.5,59.9,30.82,ESE,118,3.4,4.9,69,0.00,,,0.00,312.78,Weather logger V1.0,2015-07-05 14:01:00,
2015-07-05 07:06:00,70.7,60.4,30.83,ESE,114,2.7,4.9,70,0.00,,,0.00,334.00,Weather logger V1.0,2015-07-05 14:06:00,
2015-07-05 07:11:00,70.7,59.7,30.82,East,87,3.4,7.4,68,0.00,,,0.00,352.18,Weather logger V1.0,2015-07-05 14:11:00,
2015-07-05 07:16:00,70.9,59.4,30.82,ESE,107,5.1,7.4,67,0.00,,,0.00,368.48,Weather logger V1.0,2015-07-05 14:16:00,
2015-07-05 07:21:00,71.1,59.2,30.83,ENE,61,2.9,4.9,66,0.00,,,0.00,383.50,Weather logger V1.0,2015-07-05 14:21:00,
2015-07-05 07:26:00,71.4,58.6,30.83,East,79,1.3,2.5,64,0.00,,,0.00,396.63,Weather logger V1.0,2015-07-05 14:26:00,
2015-07-05 07:31:00,71.6,59.2,30.83,East,95,4.9,7.4,65,0.00,,,0.00,410.54,Weather logger V1.0,2015-07-05 14:31:00,
2015-07-05 07:41:00,72.0,60.1,30.83,ESE,115,8.1,9.8,66,0.00,,,0.00,437.63,Weather logger V1.0,2015-07-05 14:41:00,
2015-07-05 07:46:00,72.0,60.1,30.84,ESE,105,6.7,7.4,66,0.00,,,0.00,448.92,Weather logger V1.0,2015-07-05 14:46:00,